Terminal Aerodrome Forecast
Issued by NWS Wakefield, VA

Home | Current Version | Previous Version | Text Only | Print | Product List | Glossary On
Versions: 1 2 3 4 5 6 7 8 9 10 11 12 13
000
FTUS41 KAKQ 011700
TAFSBY
TAF
KSBY 011740Z 0118/0218 09006KT P6SM SCT040 OVC100
     FM012300 10005KT 5SM -SHRA BR OVC030
     FM020600 03004KT 4SM -SHRA BR OVC009
     FM021200 10006KT 5SM -SHRA BR OVC020=

USA.gov is the U.S. government's official web portal to all federal, state and local government web resources and services.